Time;durP1;ratioP1;P1;durP2;ratioP2;P2;SDS_P1;SDS_P2;PMS_P1;PMS_P2;Temp;Humidity;BMP_temperature;BMP_pressure;BME280_temperature;BME280_humidity;BME280_pressure;Samples;Min_cycle;Max_cycle;Signal;HPM_P1;HPM_P2
2022/11/15 00:00:49;;;;;;;;;;;;;;;2.63;100.00;100953.31;1406311;90;20423;-86
2022/11/15 00:03:18;;;;;;;;;;;;;;;2.68;100.00;100957.00;1432827;90;20286;-86
2022/11/15 00:05:46;;;;;;;;;;;;;;;2.67;100.00;100950.06;1430603;90;20339;-87
2022/11/15 00:08:13;;;;;;;;;;;;;;;2.67;100.00;100954.82;1439354;91;20480;-85
2022/11/15 00:10:40;;;;;;;;;;;;;;;2.65;100.00;100950.16;1436157;91;20315;-85
2022/11/15 00:13:09;;;;;;;;;;;;;;;2.61;100.00;100949.94;1423076;91;20985;-87
2022/11/15 00:15:38;;;;;;;;;;;;;;;2.59;100.00;100953.11;1427272;91;20395;-87
2022/11/15 00:18:05;;;;;;;;;;;;;;;2.59;100.00;100946.59;1428553;91;20430;-86
2022/11/15 00:20:35;;;;;;;;;;;;;;;2.59;100.00;100947.89;1393385;94;20423;-85
2022/11/15 00:23:04;;;;;;;;;;;;;;;2.60;100.00;100943.03;1424959;91;20480;-85
2022/11/15 00:25:31;;;;;;;;;;;;;;;2.60;100.00;100943.03;1431122;90;20308;-84
2022/11/15 00:27:59;;;;;;;;;;;;;;;2.62;100.00;100941.19;1437948;90;20264;-86
2022/11/15 00:30:26;;;;;;;;;;;;;;;2.64;100.00;100935.39;1433611;90;20580;-86
2022/11/15 00:32:54;;;;;;;;;;;;;;;2.65;100.00;100937.09;1413104;91;20317;-86
2022/11/15 00:35:21;;;;;;;;;;;;;;;2.65;100.00;100920.11;1425441;92;20401;-84
2022/11/15 00:37:48;;;;;;;;;;;;;;;2.55;100.00;100920.22;1433470;91;20287;-85
2022/11/15 00:40:15;;;;;;;;;;;;;;;2.48;100.00;100918.89;1452284;90;20813;-86
2022/11/15 00:46:15;;;;;;;;;;;;;;;2.39;100.00;100916.31;1448352;89;20337;-86
2022/11/15 00:48:42;;;;;;;;;;;;;;;2.32;100.00;100920.63;1437197;89;20830;-85
2022/11/15 00:51:09;;;;;;;;;;;;;;;2.31;100.00;100913.73;1431324;91;20391;-86
2022/11/15 00:53:36;;;;;;;;;;;;;;;2.24;100.00;100912.77;1438241;91;20309;-87
2022/11/15 00:56:03;;;;;;;;;;;;;;;2.28;100.00;100909.52;1417520;91;20413;-86
2022/11/15 00:58:29;;;;;;;;;;;;;;;2.33;100.00;100906.64;1425641;91;20355;-86
2022/11/15 01:00:56;;;;;;;;;;;;;;;2.36;100.00;100906.47;1430969;91;20808;-85
2022/11/15 01:03:23;;;;;;;;;;;;;;;2.31;100.00;100900.67;1433209;91;20392;-86
2022/11/15 01:05:50;;;;;;;;;;;;;;;2.26;100.00;100901.75;1442808;91;20572;-85
2022/11/15 01:08:17;;;;;;;;;;;;;;;2.23;100.00;100901.08;1445584;91;20290;-86
2022/11/15 01:10:44;;;;;;;;;;;;;;;2.19;100.00;100906.94;1394105;94;20312;-85
2022/11/15 01:13:11;;;;;;;;;;;;;;;2.12;100.00;100913.39;1416495;92;20401;-85
2022/11/15 01:15:41;;;;;;;;;;;;;;;2.01;100.00;100907.89;1405703;92;20282;-87
2022/11/15 01:18:09;;;;;;;;;;;;;;;2.05;100.00;100904.69;1431180;91;20317;-86
2022/11/15 01:20:41;;;;;;;;;;;;;;;2.10;100.00;100899.60;1432353;91;20361;-87
2022/11/15 01:23:08;;;;;;;;;;;;;;;2.10;100.00;100893.07;1433298;91;20421;-86
2022/11/15 01:25:35;;;;;;;;;;;;;;;2.19;100.00;100892.57;1432059;90;20425;-87
2022/11/15 01:28:02;;;;;;;;;;;;;;;2.22;100.00;100885.88;1431512;90;20433;-86
2022/11/15 01:30:29;;;;;;;;;;;;;;;2.17;100.00;100889.19;1436798;90;20302;-86
2022/11/15 01:32:56;;;;;;;;;;;;;;;2.22;100.00;100887.18;1438061;90;20294;-84
2022/11/15 01:35:23;;;;;;;;;;;;;;;2.28;100.00;100890.39;1394621;94;20260;-86
2022/11/15 01:37:49;;;;;;;;;;;;;;;2.32;100.00;100890.13;1416081;92;20841;-87
2022/11/15 01:40:16;;;;;;;;;;;;;;;2.37;100.00;100885.50;1422175;92;20312;-86
2022/11/15 01:42:43;;;;;;;;;;;;;;;2.43;100.00;100881.70;1422918;92;20433;-87
2022/11/15 01:45:15;;;;;;;;;;;;;;;2.51;100.00;100882.61;1421397;92;20333;-87
2022/11/15 01:47:45;;;;;;;;;;;;;;;2.56;100.00;100877.94;1424578;91;20347;-87
2022/11/15 01:50:15;;;;;;;;;;;;;;;2.61;100.00;100881.15;1421838;91;20325;-88
2022/11/15 01:52:42;;;;;;;;;;;;;;;2.66;100.00;100882.58;1425465;91;20296;-86
2022/11/15 01:55:24;;;;;;;;;;;;;;;2.73;100.00;100878.31;1425170;91;20849;-86
2022/11/15 01:57:54;;;;;;;;;;;;;;;2.70;100.00;100873.66;1418657;92;20348;-85
2022/11/15 02:00:21;;;;;;;;;;;;;;;2.60;100.00;100867.72;1421939;91;20332;-89
2022/11/15 02:02:48;;;;;;;;;;;;;;;2.58;100.00;100871.70;1433862;90;21570;-87
2022/11/15 02:05:15;;;;;;;;;;;;;;;2.55;100.00;100873.19;1435331;90;20387;-88
2022/11/15 02:07:42;;;;;;;;;;;;;;;2.56;100.00;100872.28;1438798;91;20234;-88
2022/11/15 02:10:13;;;;;;;;;;;;;;;2.56;100.00;100863.13;1437383;91;20882;-88
2022/11/15 02:12:40;;;;;;;;;;;;;;;2.61;100.00;100865.47;1428518;90;20458;-87
2022/11/15 02:15:08;;;;;;;;;;;;;;;2.62;100.00;100864.09;1429195;90;20421;-88
2022/11/15 02:17:48;;;;;;;;;;;;;;;2.65;100.00;100861.30;1431353;91;20317;-87
2022/11/15 02:20:38;;;;;;;;;;;;;;;2.66;100.00;100860.36;1442636;91;20307;-85
2022/11/15 02:23:14;;;;;;;;;;;;;;;2.63;100.00;100860.54;1443986;90;20296;-88
2022/11/15 02:25:45;;;;;;;;;;;;;;;2.66;100.00;100858.22;1432787;91;20326;-86
2022/11/15 02:28:41;;;;;;;;;;;;;;;2.67;100.00;100848.97;1433187;91;21029;-88
2022/11/15 02:34:25;;;;;;;;;;;;;;;2.75;100.00;100852.94;1446406;90;20361;-87
2022/11/15 02:37:07;;;;;;;;;;;;;;;2.76;100.00;100850.69;1489017;87;20802;-89
2022/11/15 02:39:49;;;;;;;;;;;;;;;2.76;100.00;100848.91;1513233;86;20398;-87
2022/11/15 02:45:20;;;;;;;;;;;;;;;2.76;100.00;100844.16;1496644;87;20288;-87
2022/11/15 02:47:48;;;;;;;;;;;;;;;2.75;100.00;100841.17;1493620;87;20326;-87
2022/11/15 02:50:18;;;;;;;;;;;;;;;2.74;100.00;100846.03;1478301;87;20455;-86
2022/11/15 02:52:46;;;;;;;;;;;;;;;2.75;100.00;100854.24;1468194;89;20482;-90
2022/11/15 02:55:40;;;;;;;;;;;;;;;2.77;100.00;100854.53;1460431;89;20416;-89
2022/11/15 02:58:28;;;;;;;;;;;;;;;2.77;100.00;100858.93;1457139;88;20298;-88
2022/11/15 03:01:01;;;;;;;;;;;;;;;2.79;100.00;100847.46;1455214;88;20308;-89
2022/11/15 03:03:46;;;;;;;;;;;;;;;2.81;100.00;100857.81;1448105;89;20315;-85
2022/11/15 03:06:41;;;;;;;;;;;;;;;2.84;100.00;100857.64;1457949;89;21255;-88
2022/11/15 03:09:33;;;;;;;;;;;;;;;2.83;100.00;100858.58;1448212;90;20314;-89
2022/11/15 03:12:03;;;;;;;;;;;;;;;2.82;100.00;100849.89;1466602;88;20290;-86
2022/11/15 03:14:33;;;;;;;;;;;;;;;2.79;100.00;100847.46;1453017;88;20285;-87
2022/11/15 03:17:07;;;;;;;;;;;;;;;2.73;100.00;100847.78;1432071;91;20309;-88
2022/11/15 03:19:46;;;;;;;;;;;;;;;2.71;100.00;100843.97;1435919;91;20359;-88
2022/11/15 03:22:22;;;;;;;;;;;;;;;2.69;100.00;100840.59;1448245;90;20298;-85
2022/11/15 03:24:52;;;;;;;;;;;;;;;2.67;100.00;100839.82;1456914;88;20954;-87
2022/11/15 03:27:22;;;;;;;;;;;;;;;2.59;100.00;100832.91;1449628;90;20427;-86
2022/11/15 03:29:53;;;;;;;;;;;;;;;2.57;100.00;100839.14;1450582;90;20323;-88
2022/11/15 03:32:23;;;;;;;;;;;;;;;2.58;100.00;100835.59;1433393;90;20293;-87
2022/11/15 03:34:53;;;;;;;;;;;;;;;2.57;100.00;100837.84;1433492;90;20317;-87
2022/11/15 03:37:23;;;;;;;;;;;;;;;2.60;100.00;100839.80;1419653;92;20341;-87
2022/11/15 03:39:49;;;;;;;;;;;;;;;2.64;100.00;100836.08;1415941;92;20862;-86
2022/11/15 03:42:32;;;;;;;;;;;;;;;2.67;100.00;100830.67;1421861;90;20281;-85
2022/11/15 03:45:15;;;;;;;;;;;;;;;2.70;100.00;100833.14;1441344;90;21013;-86
2022/11/15 03:47:51;;;;;;;;;;;;;;;2.71;100.00;100823.05;1445625;89;21085;-87
2022/11/15 03:50:20;;;;;;;;;;;;;;;2.74;100.00;100822.05;1449358;90;20384;-86
2022/11/15 03:52:49;;;;;;;;;;;;;;;2.75;100.00;100830.25;1441932;90;20318;-84
2022/11/15 03:55:18;;;;;;;;;;;;;;;2.77;100.00;100826.25;1423902;90;20350;-86
2022/11/15 03:57:48;;;;;;;;;;;;;;;2.77;100.00;100824.95;1437750;90;21077;-87
2022/11/15 04:00:16;;;;;;;;;;;;;;;2.77;100.00;100822.33;1425582;90;20303;-85
2022/11/15 04:02:43;;;;;;;;;;;;;;;2.80;100.00;100823.46;1426882;90;20392;-87
2022/11/15 04:05:10;;;;;;;;;;;;;;;2.82;100.00;100822.45;1444483;90;20405;-87
2022/11/15 04:07:36;;;;;;;;;;;;;;;2.81;100.00;100818.59;1444722;90;20270;-86
2022/11/15 04:10:05;;;;;;;;;;;;;;;2.70;100.00;100816.16;1447570;90;21066;-87
2022/11/15 04:12:34;;;;;;;;;;;;;;;2.50;100.00;100816.41;1425787;90;20287;-87
2022/11/15 04:15:07;;;;;;;;;;;;;;;2.48;100.00;100822.21;1429837;90;20514;-86
2022/11/15 04:17:43;;;;;;;;;;;;;;;2.48;100.00;100818.30;1423380;90;20302;-87
2022/11/15 04:25:51;;;;;;;;;;;;;;;2.56;100.00;100806.95;1427595;90;20785;-86
2022/11/15 04:28:19;;;;;;;;;;;;;;;2.59;100.00;100810.70;1431089;90;20273;-87
2022/11/15 04:30:46;;;;;;;;;;;;;;;2.61;100.00;100804.06;1429211;90;20466;-88
2022/11/15 04:33:13;;;;;;;;;;;;;;;2.63;100.00;100807.44;1421790;92;20275;-89
2022/11/15 04:35:40;;;;;;;;;;;;;;;2.64;100.00;100792.95;1445074;90;20331;-86
2022/11/15 04:38:08;;;;;;;;;;;;;;;2.67;100.00;100794.08;1443140;90;20751;-87
2022/11/15 04:40:36;;;;;;;;;;;;;;;2.69;100.00;100793.54;1442258;90;20408;-84
2022/11/15 04:43:04;;;;;;;;;;;;;;;2.69;100.00;100790.92;1447921;90;20323;-88
2022/11/15 04:45:31;;;;;;;;;;;;;;;2.69;100.00;100783.56;1439875;90;20250;-87
2022/11/15 04:47:58;;;;;;;;;;;;;;;2.70;100.00;100784.79;1443808;89;20285;-87
2022/11/15 04:50:25;;;;;;;;;;;;;;;2.75;100.00;100788.90;1440141;90;20347;-87
2022/11/15 04:52:53;;;;;;;;;;;;;;;2.77;100.00;100778.73;1458042;89;20382;-87
2022/11/15 04:55:20;;;;;;;;;;;;;;;2.80;100.00;100771.18;1442304;91;20860;-86
2022/11/15 04:57:47;;;;;;;;;;;;;;;2.79;100.00;100770.78;1441163;91;20370;-88
2022/11/15 05:00:16;;;;;;;;;;;;;;;2.73;100.00;100771.14;1426902;91;20347;-87
2022/11/15 05:05:29;;;;;;;;;;;;;;;2.59;100.00;100781.95;1444593;90;20512;-86
2022/11/15 05:07:56;;;;;;;;;;;;;;;2.59;100.00;100778.03;1453279;88;20747;-87
2022/11/15 05:10:23;;;;;;;;;;;;;;;2.58;100.00;100776.33;1452434;90;20278;-86
2022/11/15 05:12:49;;;;;;;;;;;;;;;2.50;100.00;100773.30;1450922;89;20398;-86
2022/11/15 05:15:16;;;;;;;;;;;;;;;2.52;100.00;100771.45;1458593;90;20404;-86
2022/11/15 05:17:44;;;;;;;;;;;;;;;2.57;100.00;100774.66;1453420;89;20322;-86
2022/11/15 05:20:11;;;;;;;;;;;;;;;2.60;100.00;100774.95;1445455;89;20270;-86
2022/11/15 05:22:38;;;;;;;;;;;;;;;2.58;100.00;100768.48;1453015;89;20449;-86
2022/11/15 05:25:06;;;;;;;;;;;;;;;2.57;100.00;100773.34;1425122;90;20315;-85
2022/11/15 05:27:33;;;;;;;;;;;;;;;2.56;100.00;100769.50;1457864;88;20397;-87
2022/11/15 05:30:00;;;;;;;;;;;;;;;2.54;100.00;100777.44;1471402;88;20239;-86
2022/11/15 05:32:28;;;;;;;;;;;;;;;2.54;100.00;100776.14;1469220;88;20227;-85
2022/11/15 05:34:56;;;;;;;;;;;;;;;2.48;100.00;100777.80;1454509;89;20312;-87
2022/11/15 05:37:22;;;;;;;;;;;;;;;2.42;100.00;100780.30;1449557;88;20431;-86
2022/11/15 05:39:49;;;;;;;;;;;;;;;2.34;100.00;100777.73;1465054;88;20315;-86
2022/11/15 05:42:16;;;;;;;;;;;;;;;2.33;100.00;100772.98;1467291;89;20282;-88
2022/11/15 05:44:46;;;;;;;;;;;;;;;2.35;100.00;100772.41;1469735;89;20701;-84
2022/11/15 05:47:24;;;;;;;;;;;;;;;2.35;100.00;100779.41;1466812;88;20404;-84
2022/11/15 05:49:53;;;;;;;;;;;;;;;2.34;100.00;100771.20;1458913;88;20316;-82
2022/11/15 05:52:24;;;;;;;;;;;;;;;2.28;100.00;100777.61;1454734;88;20305;-83
2022/11/15 05:54:52;;;;;;;;;;;;;;;2.19;100.00;100776.36;1467956;88;20248;-82
2022/11/15 05:57:19;;;;;;;;;;;;;;;2.21;100.00;100777.56;1453556;89;20283;-82
2022/11/15 05:59:46;;;;;;;;;;;;;;;2.23;100.00;100775.25;1450501;88;20298;-81
2022/11/15 06:02:13;;;;;;;;;;;;;;;2.29;100.00;100777.14;1455326;89;21126;-82
2022/11/15 06:04:40;;;;;;;;;;;;;;;2.31;100.00;100776.60;1466966;88;20319;-83
2022/11/15 06:07:06;;;;;;;;;;;;;;;2.24;100.00;100778.25;1456243;88;20520;-82
2022/11/15 06:09:33;;;;;;;;;;;;;;;2.06;100.00;100774.03;1458582;89;20381;-82
2022/11/15 06:12:00;;;;;;;;;;;;;;;2.02;100.00;100782.98;1466736;89;20283;-83
2022/11/15 09:12:09;;;;;;;;;;;;;;;5.60;97.62;100694.55;1448889;84;20346;-81
2022/11/15 09:14:36;;;;;;;;;;;;;;;5.79;98.21;100685.73;1448718;89;20293;-81
2022/11/15 09:17:03;;;;;;;;;;;;;;;5.94;97.51;100688.23;1450135;90;20813;-81
2022/11/15 09:19:30;;;;;;;;;;;;;;;6.06;97.23;100687.33;1433016;92;20289;-80
2022/11/15 09:21:56;;;;;;;;;;;;;;;6.22;97.38;100689.20;1426056;90;20340;-81
2022/11/15 09:24:23;;;;;;;;;;;;;;;6.29;94.63;100696.16;1437304;91;20321;-81
2022/11/15 09:26:51;;;;;;;;;;;;;;;6.30;91.87;100691.25;1430716;91;20351;-81
2022/11/15 09:29:18;;;;;;;;;;;;;;;6.30;89.67;100698.69;1428641;91;20261;-81
2022/11/15 09:31:45;;;;;;;;;;;;;;;6.39;90.55;100694.53;1433442;91;20369;-82
2022/11/15 09:34:12;;;;;;;;;;;;;;;6.64;91.53;100692.20;1433711;91;20391;-82
2022/11/15 09:36:39;;;;;;;;;;;;;;;6.75;90.13;100693.55;1427048;91;20284;-82
2022/11/15 09:39:06;;;;;;;;;;;;;;;6.82;91.16;100682.55;1431576;91;20351;-83
2022/11/15 09:41:43;;;;;;;;;;;;;;;6.84;89.86;100679.33;1434362;91;20351;-82
2022/11/15 09:48:08;;;;;;;;;;;;;;;6.95;89.19;100654.35;1438070;91;20613;-82
2022/11/15 09:51:19;;;;;;;;;;;;;;;6.97;89.79;100641.92;1366568;94;20370;-82
2022/11/15 09:53:52;;;;;;;;;;;;;;;7.00;90.33;100646.95;1370599;96;20376;-82
2022/11/15 09:56:22;;;;;;;;;;;;;;;7.10;90.80;100624.69;1448362;90;20308;-82
2022/11/15 09:59:07;;;;;;;;;;;;;;;7.13;90.51;100617.38;1449067;90;20300;-78
2022/11/15 10:01:43;;;;;;;;;;;;;;;7.16;89.96;100609.72;1451677;90;20264;-77
2022/11/15 10:04:10;;;;;;;;;;;;;;;7.14;95.22;100612.48;1432925;91;20344;-79
2022/11/15 10:06:41;;;;;;;;;;;;;;;7.10;88.97;100614.98;1444980;91;20283;-78
2022/11/15 10:09:11;;;;;;;;;;;;;;;7.22;89.76;100620.63;1430720;91;20484;-78
2022/11/15 10:11:40;;;;;;;;;;;;;;;7.17;88.26;100617.51;1434501;91;20299;-77
2022/11/15 10:14:17;;;;;;;;;;;;;;;7.17;88.04;100617.51;1437047;91;20313;-77
2022/11/15 10:16:47;;;;;;;;;;;;;;;7.24;88.48;100613.42;1430830;91;20340;-76
2022/11/15 10:19:42;;;;;;;;;;;;;;;7.22;87.91;100609.23;1426459;91;20344;-76
2022/11/15 10:22:16;;;;;;;;;;;;;;;7.33;89.69;100602.63;1437395;91;20256;-76
2022/11/15 10:24:45;;;;;;;;;;;;;;;7.39;89.54;100585.51;1431150;91;20307;-77
2022/11/15 10:27:15;;;;;;;;;;;;;;;7.54;90.25;100582.11;1436158;91;20256;-77
2022/11/15 10:29:47;;;;;;;;;;;;;;;7.61;90.04;100589.41;1433180;91;20299;-77
2022/11/15 10:32:17;;;;;;;;;;;;;;;7.62;87.26;100587.61;1432418;91;20276;-77
2022/11/15 10:34:45;;;;;;;;;;;;;;;7.61;87.17;100595.99;1428609;91;20329;-82
2022/11/15 10:37:12;;;;;;;;;;;;;;;7.51;85.63;100585.86;1432235;91;20350;-83
2022/11/15 10:39:39;;;;;;;;;;;;;;;7.39;86.22;100571.89;1433203;91;20373;-81
2022/11/15 10:42:17;;;;;;;;;;;;;;;7.27;87.20;100577.28;1432325;91;20290;-82
2022/11/15 10:44:45;;;;;;;;;;;;;;;7.18;86.34;100572.27;1433688;91;20284;-81
2022/11/15 10:47:28;;;;;;;;;;;;;;;7.31;87.96;100572.12;1431917;91;20842;-82
2022/11/15 10:50:00;;;;;;;;;;;;;;;7.42;88.62;100573.41;1428384;91;20284;-82
2022/11/15 10:52:29;;;;;;;;;;;;;;;7.62;89.66;100583.66;1434109;91;20355;-82
2022/11/15 10:55:17;;;;;;;;;;;;;;;7.77;88.71;100569.70;1415132;91;20433;-82
2022/11/15 10:57:54;;;;;;;;;;;;;;;7.73;86.01;100557.76;1432835;91;20345;-83
2022/11/15 11:00:24;;;;;;;;;;;;;;;7.72;85.99;100546.39;1441250;91;20314;-82
2022/11/15 11:03:00;;;;;;;;;;;;;;;7.82;87.22;100547.28;1434825;91;20311;-83
2022/11/15 11:05:37;;;;;;;;;;;;;;;7.91;86.79;100556.23;1433130;91;20421;-82
2022/11/15 11:08:14;;;;;;;;;;;;;;;8.00;85.77;100544.94;1430123;91;20839;-82
2022/11/15 11:10:47;;;;;;;;;;;;;;;8.31;86.29;100547.62;1437154;91;20842;-83
2022/11/15 11:13:18;;;;;;;;;;;;;;;8.80;87.53;100555.31;1431688;91;20402;-82
2022/11/15 11:15:47;;;;;;;;;;;;;;;9.43;85.57;100548.46;1433372;91;20300;-82
2022/11/15 11:18:20;;;;;;;;;;;;;;;9.85;84.67;100543.76;1432175;91;20351;-81
2022/11/15 11:20:54;;;;;;;;;;;;;;;10.19;85.58;100537.19;1434026;91;20327;-82
2022/11/15 11:23:47;;;;;;;;;;;;;;;10.30;80.08;100538.35;1432593;91;20306;-83
2022/11/15 11:26:38;;;;;;;;;;;;;;;10.48;79.77;100526.56;1437232;91;20284;-83
2022/11/15 11:29:18;;;;;;;;;;;;;;;10.60;76.79;100514.31;1433857;91;20277;-83
2022/11/15 11:32:05;;;;;;;;;;;;;;;10.64;74.67;100514.02;1446148;91;20393;-83
2022/11/15 11:35:10;;;;;;;;;;;;;;;10.51;73.96;100527.59;1436086;91;21457;-83
2022/11/15 11:37:57;;;;;;;;;;;;;;;10.05;73.33;100518.63;1431137;91;20872;-82
2022/11/15 11:40:37;;;;;;;;;;;;;;;9.82;74.88;100510.17;1435983;91;20298;-82
2022/11/15 11:43:20;;;;;;;;;;;;;;;9.81;76.75;100493.48;1427665;91;20497;-80
2022/11/15 11:45:59;;;;;;;;;;;;;;;9.62;76.46;100488.20;1439761;91;20814;-82
2022/11/15 11:48:45;;;;;;;;;;;;;;;9.48;78.02;100478.88;1431649;91;20255;-82
2022/11/15 11:51:34;;;;;;;;;;;;;;;9.40;78.65;100470.81;1433700;91;20292;-82
2022/11/15 11:54:07;;;;;;;;;;;;;;;9.33;78.55;100469.22;1433743;91;20414;-82
2022/11/15 11:56:37;;;;;;;;;;;;;;;9.31;78.71;100466.37;1443164;91;20328;-82
2022/11/15 11:59:36;;;;;;;;;;;;;;;9.52;80.89;100468.86;1438950;91;20329;-82
2022/11/15 12:02:10;;;;;;;;;;;;;;;9.64;79.93;100483.63;1436778;91;20813;-82
2022/11/15 12:04:40;;;;;;;;;;;;;;;9.81;79.60;100467.05;1441170;91;20330;-82
2022/11/15 12:07:23;;;;;;;;;;;;;;;10.21;79.15;100467.77;1438467;91;20806;-83
2022/11/15 12:10:05;;;;;;;;;;;;;;;10.74;80.01;100451.28;1427219;91;20511;-82
2022/11/15 12:12:55;;;;;;;;;;;;;;;11.31;76.06;100454.53;1421381;91;20797;-82
2022/11/15 12:15:25;;;;;;;;;;;;;;;11.70;76.68;100448.88;1437093;90;20233;-83
2022/11/15 12:17:54;;;;;;;;;;;;;;;11.80;73.25;100447.47;1430420;91;20225;-83
2022/11/15 12:20:27;;;;;;;;;;;;;;;11.71;72.97;100451.38;1414260;91;20819;-82
2022/11/15 12:23:15;;;;;;;;;;;;;;;11.58;72.42;100444.31;1433134;91;20872;-83
2022/11/15 12:25:52;;;;;;;;;;;;;;;11.40;72.80;100445.66;1444831;91;20306;-82
2022/11/15 12:28:22;;;;;;;;;;;;;;;11.04;69.89;100435.55;1440145;91;20782;-83
2022/11/15 12:30:58;;;;;;;;;;;;;;;10.92;72.62;100446.02;1424546;91;20859;-83
2022/11/15 12:33:38;;;;;;;;;;;;;;;10.77;74.48;100438.58;1431488;91;20336;-82
2022/11/15 12:36:08;;;;;;;;;;;;;;;10.64;74.60;100436.77;1438544;91;20220;-83
2022/11/15 12:38:56;;;;;;;;;;;;;;;10.50;75.40;100430.17;1434343;91;20373;-82
2022/11/15 12:41:26;;;;;;;;;;;;;;;10.33;74.41;100443.69;1435134;91;20378;-82
2022/11/15 12:43:54;;;;;;;;;;;;;;;10.25;76.44;100441.39;1436052;91;20307;-83
2022/11/15 12:46:31;;;;;;;;;;;;;;;10.16;76.38;100446.56;1434788;91;20241;-84
2022/11/15 12:49:00;;;;;;;;;;;;;;;9.93;75.13;100444.75;1435704;91;20554;-83
2022/11/15 12:51:50;;;;;;;;;;;;;;;9.77;76.00;100432.61;1432430;91;20873;-83
2022/11/15 12:54:29;;;;;;;;;;;;;;;9.73;76.93;100426.45;1438059;91;20329;-83
2022/11/15 12:57:09;;;;;;;;;;;;;;;9.63;77.45;100401.34;1434258;91;20247;-82
2022/11/15 13:00:01;;;;;;;;;;;;;;;9.31;77.12;100388.45;1436636;91;20291;-84
2022/11/15 13:02:39;;;;;;;;;;;;;;;9.26;78.23;100388.41;1429697;91;20383;-83
2022/11/15 13:05:19;;;;;;;;;;;;;;;9.19;78.90;100393.05;1439381;91;20398;-83
2022/11/15 13:07:50;;;;;;;;;;;;;;;9.19;79.88;100391.73;1425440;91;20813;-83
2022/11/15 13:10:29;;;;;;;;;;;;;;;9.19;80.23;100392.56;1438004;91;20760;-83
2022/11/15 13:13:01;;;;;;;;;;;;;;;9.23;80.63;100397.06;1438994;91;20278;-83
2022/11/15 13:15:38;;;;;;;;;;;;;;;9.20;80.28;100396.86;1427576;91;20276;-82
2022/11/15 13:18:30;;;;;;;;;;;;;;;9.23;80.86;100397.89;1432157;91;20322;-83
2022/11/15 13:20:57;;;;;;;;;;;;;;;9.22;80.88;100397.56;1429188;91;20330;-83
2022/11/15 13:23:24;;;;;;;;;;;;;;;9.18;80.58;100398.00;1430012;91;20329;-83
2022/11/15 13:26:07;;;;;;;;;;;;;;;9.14;80.51;100393.95;1433184;91;20278;-83
2022/11/15 13:28:38;;;;;;;;;;;;;;;9.15;80.65;100398.24;1428237;91;20374;-80
2022/11/15 13:31:30;;;;;;;;;;;;;;;9.10;80.73;100400.49;1436630;91;20347;-80
2022/11/15 13:34:00;;;;;;;;;;;;;;;9.08;80.82;100405.89;1438902;91;20355;-82
2022/11/15 13:36:32;;;;;;;;;;;;;;;9.00;80.84;100398.66;1440346;91;20761;-83
2022/11/15 13:39:03;;;;;;;;;;;;;;;8.91;80.55;100401.30;1429887;91;20789;-83
2022/11/15 13:41:33;;;;;;;;;;;;;;;8.85;81.09;100393.44;1431314;91;20241;-83
2022/11/15 13:44:01;;;;;;;;;;;;;;;8.81;81.48;100389.42;1425857;91;20746;-83
2022/11/15 13:46:32;;;;;;;;;;;;;;;8.74;82.40;100389.61;1440237;91;20350;-83
2022/11/15 13:49:06;;;;;;;;;;;;;;;8.73;82.39;100387.95;1433446;91;20269;-83
2022/11/15 13:51:51;;;;;;;;;;;;;;;8.77;82.95;100385.38;1447603;89;20761;-82
2022/11/15 13:54:36;;;;;;;;;;;;;;;8.80;82.71;100391.23;1460462;89;20307;-83
2022/11/15 13:57:07;;;;;;;;;;;;;;;8.82;82.75;100391.08;1457488;89;20351;-83
2022/11/15 13:59:35;;;;;;;;;;;;;;;8.81;82.54;100378.87;1461972;89;20255;-82
2022/11/15 14:02:17;;;;;;;;;;;;;;;8.76;82.52;100378.44;1470064;89;20253;-83
2022/11/15 14:04:50;;;;;;;;;;;;;;;8.73;82.69;100376.91;1462844;89;20264;-82
2022/11/15 14:07:23;;;;;;;;;;;;;;;8.75;83.29;100377.61;1461775;89;20330;-82
2022/11/15 14:09:50;;;;;;;;;;;;;;;8.80;83.29;100382.45;1459747;89;20390;-83
2022/11/15 14:12:32;;;;;;;;;;;;;;;8.83;83.50;100379.55;1462866;89;20740;-82
2022/11/15 14:15:01;;;;;;;;;;;;;;;8.89;83.53;100369.78;1460772;89;20269;-82
2022/11/15 14:17:34;;;;;;;;;;;;;;;8.96;83.89;100362.96;1467046;89;20330;-82
2022/11/15 14:20:01;;;;;;;;;;;;;;;9.02;83.71;100362.41;1457262;89;20337;-82
2022/11/15 14:22:30;;;;;;;;;;;;;;;9.03;82.89;100350.89;1464902;89;20277;-82
2022/11/15 14:25:22;;;;;;;;;;;;;;;8.92;82.61;100340.47;1456861;89;20256;-82
2022/11/15 14:28:09;;;;;;;;;;;;;;;8.87;83.02;100335.26;1446726;89;20909;-82
2022/11/15 14:30:36;;;;;;;;;;;;;;;8.88;83.70;100333.78;1464174;89;20345;-82
2022/11/15 14:33:15;;;;;;;;;;;;;;;8.92;83.74;100331.69;1464131;89;20248;-82
2022/11/15 14:35:42;;;;;;;;;;;;;;;8.91;83.49;100334.83;1462755;89;20218;-82
2022/11/15 14:38:09;;;;;;;;;;;;;;;8.77;83.06;100328.64;1468868;89;20390;-83
2022/11/15 14:40:36;;;;;;;;;;;;;;;8.61;83.13;100315.17;1457919;89;20806;-85
2022/11/15 14:43:03;;;;;;;;;;;;;;;8.52;83.53;100308.44;1461557;89;20377;-83
2022/11/15 14:45:42;;;;;;;;;;;;;;;8.48;84.12;100317.57;1455892;89;20288;-82
2022/11/15 14:48:09;;;;;;;;;;;;;;;8.37;84.90;100307.11;1457050;89;20302;-81
2022/11/15 14:50:36;;;;;;;;;;;;;;;8.38;84.71;100318.02;1447930;90;20420;-82
2022/11/15 14:53:03;;;;;;;;;;;;;;;8.40;85.06;100328.45;1446913;91;20405;-83
2022/11/15 14:55:34;;;;;;;;;;;;;;;8.41;85.31;100323.06;1468539;88;20320;-82
2022/11/15 14:58:03;;;;;;;;;;;;;;;8.39;86.18;100317.56;1490688;88;20790;-81
2022/11/15 15:00:32;;;;;;;;;;;;;;;8.23;86.49;100304.86;1472625;88;20345;-81
2022/11/15 15:02:58;;;;;;;;;;;;;;;8.13;86.60;100310.95;1476508;87;20290;-83
2022/11/15 15:05:34;;;;;;;;;;;;;;;8.06;87.16;100305.88;1481165;87;20737;-82
2022/11/15 15:08:02;;;;;;;;;;;;;;;8.00;88.40;100298.97;1474871;87;20786;-82
2022/11/15 15:10:34;;;;;;;;;;;;;;;7.94;88.56;100299.05;1468593;88;20300;-82
2022/11/15 15:13:01;;;;;;;;;;;;;;;7.91;88.71;100300.15;1460468;89;20827;-82
2022/11/15 15:15:36;;;;;;;;;;;;;;;7.87;89.29;100288.19;1466432;89;20233;-81
2022/11/15 15:18:08;;;;;;;;;;;;;;;7.84;90.48;100291.58;1464889;89;20324;-82
2022/11/15 15:20:36;;;;;;;;;;;;;;;7.79;90.45;100288.02;1453578;89;20768;-82
2022/11/15 15:23:03;;;;;;;;;;;;;;;7.75;90.59;100285.80;1457409;88;20241;-83
2022/11/15 15:25:32;;;;;;;;;;;;;;;7.73;90.77;100283.28;1455015;89;20258;-85
2022/11/15 15:28:00;;;;;;;;;;;;;;;7.72;90.67;100280.31;1444275;91;20933;-85
2022/11/15 15:30:30;;;;;;;;;;;;;;;7.78;91.14;100286.84;1436422;91;20309;-84
2022/11/15 15:32:57;;;;;;;;;;;;;;;7.79;91.69;100283.23;1438110;90;20951;-84
2022/11/15 15:35:26;;;;;;;;;;;;;;;7.80;92.02;100283.12;1444206;90;20286;-82
2022/11/15 15:37:53;;;;;;;;;;;;;;;7.78;92.48;100271.87;1441677;91;20243;-83
2022/11/15 15:40:22;;;;;;;;;;;;;;;7.79;91.85;100274.02;1445888;90;20928;-82
2022/11/15 15:42:49;;;;;;;;;;;;;;;7.87;92.05;100278.14;1366921;90;20340;-81
2022/11/15 15:45:18;;;;;;;;;;;;;;;7.93;92.26;100274.14;1420536;91;20347;-82
2022/11/15 15:47:45;;;;;;;;;;;;;;;7.88;92.79;100263.98;1437413;91;20309;-82
2022/11/15 15:50:16;;;;;;;;;;;;;;;7.85;91.90;100278.75;1441872;91;20309;-82
2022/11/15 15:52:43;;;;;;;;;;;;;;;7.84;92.07;100270.50;1441248;91;20287;-81
2022/11/15 15:55:10;;;;;;;;;;;;;;;7.80;92.59;100265.99;1429121;91;20837;-82
2022/11/15 15:57:37;;;;;;;;;;;;;;;7.76;92.46;100268.52;1431704;91;20950;-82
2022/11/15 16:00:05;;;;;;;;;;;;;;;7.75;92.86;100268.67;1441839;90;20294;-80
2022/11/15 16:02:32;;;;;;;;;;;;;;;7.78;92.77;100269.23;1434552;91;20905;-80
2022/11/15 16:04:59;;;;;;;;;;;;;;;7.73;94.01;100262.70;1443053;91;20213;-84
2022/11/15 16:07:28;;;;;;;;;;;;;;;7.67;94.08;100264.89;1446537;90;20287;-84
2022/11/15 16:10:01;;;;;;;;;;;;;;;7.62;93.83;100275.02;1445382;91;20258;-83
2022/11/15 16:12:33;;;;;;;;;;;;;;;7.62;95.34;100266.25;1447271;90;20309;-83
2022/11/15 16:15:01;;;;;;;;;;;;;;;7.57;94.94;100273.25;1445563;90;20347;-83
2022/11/15 16:17:36;;;;;;;;;;;;;;;7.60;95.04;100278.74;1438695;91;20373;-84
2022/11/15 16:20:03;;;;;;;;;;;;;;;7.58;94.51;100276.23;1439762;90;20362;-83
2022/11/15 16:22:30;;;;;;;;;;;;;;;7.62;94.80;100282.91;1443238;90;20321;-81
2022/11/15 16:24:57;;;;;;;;;;;;;;;7.63;94.94;100274.52;1446841;89;20248;-81